Time;durP1;ratioP1;P1;durP2;ratioP2;P2;SDS_P1;SDS_P2;PMS_P1;PMS_P2;Temp;Humidity;BMP_temperature;BMP_pressure;BME280_temperature;BME280_humidity;BME280_pressure;Samples;Min_cycle;Max_cycle;Signal;HPM_P1;HPM_P2
2021/01/27 00:04:19;;;;;;;49.20;41.30;;;;;;;;;;5462594;22;20250;-87
2021/01/27 00:06:46;;;;;;;49.92;42.67;;;;;;;;;;5077743;28;20523;-87
2021/01/27 00:09:13;;;;;;;53.47;43.80;;;;;;;;;;5075992;28;20269;-87
2021/01/27 00:11:41;;;;;;;49.35;42.33;;;;;;;;;;5077484;28;20215;-87
2021/01/27 00:14:08;;;;;;;48.40;43.05;;;;;;;;;;5079705;28;20231;-87
2021/01/27 00:16:35;;;;;;;63.70;47.17;;;;;;;;;;5081824;28;20218;-87
2021/01/27 00:19:03;;;;;;;52.75;44.83;;;;;;;;;;5083473;28;20203;-87
2021/01/27 00:21:30;;;;;;;44.85;40.15;;;;;;;;;;5081457;28;20195;-87
2021/01/27 00:23:57;;;;;;;49.33;44.05;;;;;;;;;;5080424;28;20203;-87
2021/01/27 00:26:33;;;;;;;50.97;45.50;;;;;;;;;;5083192;28;20187;-87
2021/01/27 00:29:08;;;;;;;47.33;42.33;;;;;;;;;;5081228;28;20202;-86
2021/01/27 00:31:35;;;;;;;46.90;41.80;;;;;;;;;;5081396;28;20241;-87
2021/01/27 00:34:02;;;;;;;48.20;41.90;;;;;;;;;;5084602;28;20238;-86
2021/01/27 00:36:37;;;;;;;49.65;44.22;;;;;;;;;;5104504;28;20219;-87
2021/01/27 00:42:08;;;;;;;47.55;42.47;;;;;;;;;;5092013;28;20600;-87
2021/01/27 00:44:35;;;;;;;45.47;40.65;;;;;;;;;;5088831;28;20190;-87
2021/01/27 00:47:02;;;;;;;47.63;42.65;;;;;;;;;;5085767;28;20189;-87
2021/01/27 00:49:33;;;;;;;45.60;40.53;;;;;;;;;;5093059;28;20188;-86
2021/01/27 00:52:05;;;;;;;48.00;42.05;;;;;;;;;;5092199;28;20230;-87
2021/01/27 00:54:39;;;;;;;45.80;40.67;;;;;;;;;;5088228;28;20208;-87
2021/01/27 00:57:07;;;;;;;47.33;42.20;;;;;;;;;;5085259;28;20209;-87
2021/01/27 00:59:34;;;;;;;45.47;40.67;;;;;;;;;;5079284;28;20719;-87
2021/01/27 01:02:01;;;;;;;48.67;43.40;;;;;;;;;;5077551;28;20211;-87
2021/01/27 01:04:30;;;;;;;47.63;41.75;;;;;;;;;;5077254;28;20697;-87
2021/01/27 01:07:02;;;;;;;48.67;43.65;;;;;;;;;;5075982;28;20261;-87
2021/01/27 01:09:28;;;;;;;44.13;39.60;;;;;;;;;;5077171;28;20246;-87
2021/01/27 01:12:00;;;;;;;43.97;39.45;;;;;;;;;;5076313;28;20192;-87
2021/01/27 01:14:28;;;;;;;48.58;43.35;;;;;;;;;;5077922;28;20235;-87
2021/01/27 01:16:55;;;;;;;45.67;40.97;;;;;;;;;;5078556;28;20541;-87
2021/01/27 01:19:22;;;;;;;48.88;43.83;;;;;;;;;;5079857;28;20209;-87
2021/01/27 01:21:49;;;;;;;54.15;45.00;;;;;;;;;;5083130;28;20192;-87
2021/01/27 01:24:17;;;;;;;48.10;43.20;;;;;;;;;;5076426;28;20692;-87
2021/01/27 01:26:43;;;;;;;46.30;41.45;;;;;;;;;;5075627;28;20215;-87
2021/01/27 01:29:10;;;;;;;50.50;45.10;;;;;;;;;;5075627;28;20210;-87
2021/01/27 01:31:38;;;;;;;47.92;41.45;;;;;;;;;;5076331;28;20681;-87
2021/01/27 01:34:08;;;;;;;48.17;42.45;;;;;;;;;;5075484;28;20226;-87
2021/01/27 01:36:35;;;;;;;48.30;43.28;;;;;;;;;;5075189;28;20733;-87
2021/01/27 01:39:02;;;;;;;44.83;40.03;;;;;;;;;;5089682;28;20198;-87
2021/01/27 01:41:29;;;;;;;46.08;40.83;;;;;;;;;;5097986;28;20266;-87
2021/01/27 01:43:56;;;;;;;48.33;43.58;;;;;;;;;;5097783;28;20256;-87
2021/01/27 01:46:24;;;;;;;47.55;42.47;;;;;;;;;;5098792;28;20216;-87
2021/01/27 01:48:53;;;;;;;48.35;43.05;;;;;;;;;;5081148;28;20649;-87
2021/01/27 01:51:22;;;;;;;46.60;41.72;;;;;;;;;;5098325;28;20194;-88
2021/01/27 01:53:49;;;;;;;44.90;40.38;;;;;;;;;;5099465;28;20211;-87
2021/01/27 01:56:18;;;;;;;44.45;40.03;;;;;;;;;;5099306;28;20232;-87
2021/01/27 01:58:47;;;;;;;45.17;40.67;;;;;;;;;;5099350;28;20191;-87
2021/01/27 02:01:14;;;;;;;46.40;41.80;;;;;;;;;;5098599;28;20187;-87
2021/01/27 02:03:43;;;;;;;44.03;39.28;;;;;;;;;;5100521;28;20235;-87
2021/01/27 02:06:16;;;;;;;47.75;42.30;;;;;;;;;;5102043;28;20202;-87
2021/01/27 02:08:44;;;;;;;48.90;43.83;;;;;;;;;;5094829;28;20594;-87
2021/01/27 02:11:12;;;;;;;47.38;42.38;;;;;;;;;;5101469;28;20187;-87
2021/01/27 02:14:08;;;;;;;48.22;43.08;;;;;;;;;;5107241;28;20219;-87
2021/01/27 02:16:40;;;;;;;48.42;43.42;;;;;;;;;;5103702;28;20194;-86
2021/01/27 02:19:26;;;;;;;47.17;42.08;;;;;;;;;;5102534;28;20207;-87
2021/01/27 02:22:16;;;;;;;46.60;41.80;;;;;;;;;;5103174;28;20187;-87
2021/01/27 02:25:18;;;;;;;48.65;43.55;;;;;;;;;;5098995;28;20206;-87
2021/01/27 02:27:48;;;;;;;48.78;43.42;;;;;;;;;;5064428;28;20200;-86
2021/01/27 02:30:26;;;;;;;45.17;40.45;;;;;;;;;;5061402;28;20200;-86
2021/01/27 02:33:06;;;;;;;47.55;42.45;;;;;;;;;;5061366;28;20212;-86
2021/01/27 02:35:37;;;;;;;47.83;43.17;;;;;;;;;;5055568;28;20704;-86
2021/01/27 02:38:09;;;;;;;47.20;42.35;;;;;;;;;;5056007;28;20212;-87
2021/01/27 02:40:39;;;;;;;46.42;41.75;;;;;;;;;;5057098;28;20651;-86
2021/01/27 02:43:10;;;;;;;45.40;40.80;;;;;;;;;;5069148;28;20556;-86
2021/01/27 02:45:38;;;;;;;52.03;42.95;;;;;;;;;;5059024;28;20646;-87
2021/01/27 02:48:07;;;;;;;46.67;41.95;;;;;;;;;;5061554;28;20189;-86
2021/01/27 02:50:38;;;;;;;46.35;41.55;;;;;;;;;;5057664;28;20657;-86
2021/01/27 02:53:08;;;;;;;51.22;43.55;;;;;;;;;;5054058;28;20200;-86
2021/01/27 02:55:37;;;;;;;46.20;41.80;;;;;;;;;;5052714;28;20224;-86
2021/01/27 02:58:06;;;;;;;46.53;41.83;;;;;;;;;;5054082;28;20211;-87
2021/01/27 03:00:36;;;;;;;46.45;41.85;;;;;;;;;;5059371;28;20196;-86
2021/01/27 03:03:05;;;;;;;46.42;41.60;;;;;;;;;;5039450;28;20200;-87
2021/01/27 03:05:34;;;;;;;44.05;39.65;;;;;;;;;;5094398;28;20211;-86
2021/01/27 03:08:04;;;;;;;44.67;40.30;;;;;;;;;;5094894;28;20187;-86
2021/01/27 03:10:33;;;;;;;43.70;38.95;;;;;;;;;;5095146;28;20199;-86
2021/01/27 03:12:59;;;;;;;44.97;40.47;;;;;;;;;;5094933;28;20191;-86
2021/01/27 03:15:26;;;;;;;42.30;38.03;;;;;;;;;;5094241;28;20214;-86
2021/01/27 03:17:56;;;;;;;42.35;37.85;;;;;;;;;;5095687;28;20195;-86
2021/01/27 03:20:25;;;;;;;42.35;38.25;;;;;;;;;;5094558;28;20251;-86
2021/01/27 03:22:56;;;;;;;43.30;39.05;;;;;;;;;;5100991;28;20210;-87
2021/01/27 03:25:25;;;;;;;43.22;38.90;;;;;;;;;;5105063;28;20230;-86
2021/01/27 03:27:56;;;;;;;40.83;36.75;;;;;;;;;;5095206;28;20195;-86
2021/01/27 03:30:23;;;;;;;41.95;37.60;;;;;;;;;;5094247;28;20210;-86
2021/01/27 03:32:53;;;;;;;40.80;36.95;;;;;;;;;;5094145;28;20214;-86
2021/01/27 03:35:25;;;;;;;40.20;36.38;;;;;;;;;;5094173;28;20226;-86
2021/01/27 03:37:53;;;;;;;38.97;35.03;;;;;;;;;;5094065;28;20319;-87
2021/01/27 03:40:21;;;;;;;40.78;36.58;;;;;;;;;;5094494;28;20245;-86
2021/01/27 03:42:52;;;;;;;38.28;34.45;;;;;;;;;;5094089;28;20609;-86
2021/01/27 03:45:20;;;;;;;39.95;36.13;;;;;;;;;;5094090;28;20222;-86
2021/01/27 03:47:51;;;;;;;40.90;37.00;;;;;;;;;;5098183;28;20175;-86
2021/01/27 03:50:20;;;;;;;38.88;35.28;;;;;;;;;;5097892;28;20187;-86
2021/01/27 03:52:51;;;;;;;39.90;36.17;;;;;;;;;;5100023;28;20555;-86
2021/01/27 03:55:22;;;;;;;40.47;36.65;;;;;;;;;;5097774;28;20235;-86
2021/01/27 03:57:59;;;;;;;41.67;37.60;;;;;;;;;;5103158;28;20179;-86
2021/01/27 04:00:28;;;;;;;37.65;34.25;;;;;;;;;;5103334;28;20183;-86
2021/01/27 04:03:02;;;;;;;36.55;33.38;;;;;;;;;;5097706;28;20213;-86
2021/01/27 04:05:29;;;;;;;38.40;34.70;;;;;;;;;;5097794;28;20187;-86
2021/01/27 04:07:55;;;;;;;38.78;34.97;;;;;;;;;;5097739;28;20187;-86
2021/01/27 04:10:22;;;;;;;37.85;34.30;;;;;;;;;;5097891;28;20187;-86
2021/01/27 04:12:49;;;;;;;35.42;32.33;;;;;;;;;;5097935;28;20213;-86
2021/01/27 04:15:17;;;;;;;34.88;31.75;;;;;;;;;;5097637;28;20700;-86
2021/01/27 04:17:44;;;;;;;34.50;31.58;;;;;;;;;;5100848;28;20624;-86
2021/01/27 04:20:12;;;;;;;34.83;31.63;;;;;;;;;;5232481;22;21173;-86
2021/01/27 04:22:39;;;;;;;36.35;32.75;;;;;;;;;;5077424;28;20205;-86
2021/01/27 04:25:07;;;;;;;36.20;33.00;;;;;;;;;;5077632;28;20192;-86
2021/01/27 04:27:33;;;;;;;35.13;32.22;;;;;;;;;;5079871;28;20188;-86
2021/01/27 04:30:00;;;;;;;34.60;31.70;;;;;;;;;;5086381;28;20188;-86
2021/01/27 04:32:28;;;;;;;32.17;29.05;;;;;;;;;;5082536;28;20558;-86
2021/01/27 04:34:55;;;;;;;33.30;30.52;;;;;;;;;;5082886;28;20235;-86
2021/01/27 04:37:22;;;;;;;33.35;30.55;;;;;;;;;;5097429;28;20705;-86
2021/01/27 04:39:49;;;;;;;31.92;29.02;;;;;;;;;;5097613;28;20191;-86
2021/01/27 04:42:17;;;;;;;32.38;29.50;;;;;;;;;;5079574;28;20203;-86
2021/01/27 04:44:44;;;;;;;32.55;29.48;;;;;;;;;;5097590;28;20268;-86
2021/01/27 04:47:13;;;;;;;31.00;27.98;;;;;;;;;;5097019;28;20204;-86
2021/01/27 04:49:44;;;;;;;31.80;28.83;;;;;;;;;;5097316;28;20226;-86
2021/01/27 04:52:14;;;;;;;29.30;27.00;;;;;;;;;;5097234;28;20641;-86
2021/01/27 04:54:55;;;;;;;30.05;27.58;;;;;;;;;;5097461;28;20222;-86
2021/01/27 04:57:36;;;;;;;28.90;26.60;;;;;;;;;;5097407;28;20182;-87
2021/01/27 05:00:10;;;;;;;31.15;28.65;;;;;;;;;;5095922;28;20194;-86
2021/01/27 05:02:44;;;;;;;28.58;26.65;;;;;;;;;;5096986;28;20629;-86
2021/01/27 05:05:14;;;;;;;29.92;27.67;;;;;;;;;;5097370;28;20186;-86
2021/01/27 05:08:08;;;;;;;28.77;26.45;;;;;;;;;;5096621;28;20240;-87
2021/01/27 05:10:39;;;;;;;29.13;27.02;;;;;;;;;;5035057;28;20201;-86
2021/01/27 05:13:09;;;;;;;27.95;25.80;;;;;;;;;;5034478;28;20749;-86
2021/01/27 05:15:36;;;;;;;28.13;26.23;;;;;;;;;;5034909;28;20212;-86
2021/01/27 05:18:03;;;;;;;29.17;26.70;;;;;;;;;;5034406;28;20185;-86
2021/01/27 05:20:31;;;;;;;28.10;25.98;;;;;;;;;;5035120;28;20248;-86
2021/01/27 05:22:58;;;;;;;28.25;26.25;;;;;;;;;;5034379;28;20216;-86
2021/01/27 05:25:34;;;;;;;28.08;25.77;;;;;;;;;;5034115;28;20609;-86
2021/01/27 05:28:02;;;;;;;29.20;27.00;;;;;;;;;;5034396;28;20205;-86
2021/01/27 05:30:31;;;;;;;29.10;26.98;;;;;;;;;;5035055;28;20616;-86
2021/01/27 05:32:58;;;;;;;27.80;25.60;;;;;;;;;;5034730;28;20211;-86
2021/01/27 05:38:24;;;;;;;27.15;25.20;;;;;;;;;;5034633;28;20236;-86
2021/01/27 05:40:52;;;;;;;27.23;25.38;;;;;;;;;;5034105;28;20254;-86
2021/01/27 05:43:24;;;;;;;27.25;25.02;;;;;;;;;;5033686;28;20189;-86
2021/01/27 05:45:51;;;;;;;27.58;25.38;;;;;;;;;;5062415;28;20248;-86
2021/01/27 05:48:29;;;;;;;29.63;27.02;;;;;;;;;;5097345;28;20245;-86
2021/01/27 05:51:11;;;;;;;27.83;25.83;;;;;;;;;;5096178;28;20213;-86
2021/01/27 05:53:39;;;;;;;27.80;25.60;;;;;;;;;;5096292;28;20205;-86
2021/01/27 05:56:07;;;;;;;29.33;27.23;;;;;;;;;;5095521;28;20233;-86
2021/01/27 05:58:35;;;;;;;28.05;25.85;;;;;;;;;;5096075;28;20247;-86
2021/01/27 06:01:16;;;;;;;28.77;26.50;;;;;;;;;;5097061;28;20240;-86
2021/01/27 06:06:19;;;;;;;27.35;25.48;;;;;;;;;;6169352;22;21639;-85
2021/01/27 06:08:49;;;;;;;27.75;25.73;;;;;;;;;;5074788;28;20755;-86
2021/01/27 06:11:16;;;;;;;27.38;25.48;;;;;;;;;;5075216;28;20248;-86
2021/01/27 06:13:43;;;;;;;26.65;24.75;;;;;;;;;;5075686;28;20199;-86
2021/01/27 06:16:28;;;;;;;26.45;24.65;;;;;;;;;;5075354;28;20214;-86
2021/01/27 06:19:09;;;;;;;27.73;25.63;;;;;;;;;;5075200;28;20212;-86
2021/01/27 06:21:54;;;;;;;27.30;25.40;;;;;;;;;;5057500;28;20208;-86
2021/01/27 06:24:31;;;;;;;26.17;24.30;;;;;;;;;;5075490;28;20561;-86
2021/01/27 06:27:12;;;;;;;27.10;25.20;;;;;;;;;;5075420;28;20555;-87
2021/01/27 06:29:50;;;;;;;26.75;24.95;;;;;;;;;;5075456;28;20203;-86
2021/01/27 06:32:22;;;;;;;25.20;23.60;;;;;;;;;;5075313;28;20189;-86
2021/01/27 06:35:03;;;;;;;26.75;24.75;;;;;;;;;;5078439;28;20222;-86
2021/01/27 06:37:48;;;;;;;26.33;24.52;;;;;;;;;;5094557;28;20244;-84
2021/01/27 06:40:27;;;;;;;26.67;24.77;;;;;;;;;;5084740;28;20208;-85
2021/01/27 06:43:03;;;;;;;25.90;24.10;;;;;;;;;;5094826;28;20248;-84
2021/01/27 06:45:35;;;;;;;26.00;24.27;;;;;;;;;;5094911;28;20187;-84
2021/01/27 06:48:18;;;;;;;26.10;24.30;;;;;;;;;;5094364;28;20214;-84
2021/01/27 06:50:52;;;;;;;26.88;24.88;;;;;;;;;;5076751;28;20187;-84
2021/01/27 06:53:33;;;;;;;26.83;24.63;;;;;;;;;;5094731;28;20183;-84
2021/01/27 06:56:19;;;;;;;25.85;24.05;;;;;;;;;;5094514;28;20225;-84
2021/01/27 06:59:06;;;;;;;28.08;25.98;;;;;;;;;;5094729;28;20214;-84
2021/01/27 07:01:47;;;;;;;27.08;25.17;;;;;;;;;;5094760;28;20191;-84
2021/01/27 07:04:23;;;;;;;26.55;24.75;;;;;;;;;;5094744;28;20206;-84
2021/01/27 07:07:03;;;;;;;27.98;25.83;;;;;;;;;;5077944;28;20234;-85
2021/01/27 07:09:41;;;;;;;27.58;25.25;;;;;;;;;;5095032;28;20653;-84
2021/01/27 07:12:12;;;;;;;26.92;25.20;;;;;;;;;;5096013;28;20225;-84
2021/01/27 07:14:49;;;;;;;27.48;25.42;;;;;;;;;;5098370;28;20226;-84
2021/01/27 07:17:46;;;;;;;27.48;25.58;;;;;;;;;;5098467;28;20187;-84
2021/01/27 07:20:20;;;;;;;28.30;26.40;;;;;;;;;;5059294;28;20184;-85
2021/01/27 07:22:52;;;;;;;27.75;25.75;;;;;;;;;;5055750;28;20203;-84
2021/01/27 07:25:22;;;;;;;27.40;25.45;;;;;;;;;;5055450;28;20226;-84
2021/01/27 07:27:53;;;;;;;29.00;26.83;;;;;;;;;;5055194;28;20210;-84
2021/01/27 07:30:22;;;;;;;29.05;26.77;;;;;;;;;;5037674;28;20196;-81
2021/01/27 07:32:51;;;;;;;28.25;26.23;;;;;;;;;;5054411;28;20200;-82
2021/01/27 07:35:20;;;;;;;31.15;28.65;;;;;;;;;;5038298;28;20708;-84
2021/01/27 07:37:50;;;;;;;30.20;27.90;;;;;;;;;;5057275;28;20199;-84
2021/01/27 07:40:18;;;;;;;29.85;27.55;;;;;;;;;;5053977;28;20208;-84
2021/01/27 07:42:49;;;;;;;28.70;26.42;;;;;;;;;;5054627;28;20277;-82
2021/01/27 07:45:30;;;;;;;28.83;26.60;;;;;;;;;;5056701;28;20192;-81
2021/01/27 07:48:16;;;;;;;28.20;26.10;;;;;;;;;;5058242;28;20208;-81
2021/01/27 07:50:49;;;;;;;27.25;25.35;;;;;;;;;;5056736;28;20192;-81
2021/01/27 07:53:19;;;;;;;28.48;26.40;;;;;;;;;;5058254;28;20188;-81
2021/01/27 07:55:51;;;;;;;29.00;26.90;;;;;;;;;;5079451;28;20696;-81
2021/01/27 07:58:20;;;;;;;28.00;26.00;;;;;;;;;;5095944;28;20189;-81
2021/01/27 08:00:54;;;;;;;28.90;26.55;;;;;;;;;;5096839;28;20594;-81
2021/01/27 08:03:23;;;;;;;27.05;25.05;;;;;;;;;;5096270;28;20629;-82
2021/01/27 08:05:51;;;;;;;27.48;25.38;;;;;;;;;;5094874;28;20225;-82
2021/01/27 08:08:21;;;;;;;28.27;26.20;;;;;;;;;;5095507;28;20257;-81
2021/01/27 08:10:48;;;;;;;27.63;25.52;;;;;;;;;;5093981;28;20221;-82
2021/01/27 08:13:20;;;;;;;27.40;25.10;;;;;;;;;;5094711;28;20200;-81
2021/01/27 08:16:00;;;;;;;26.92;24.63;;;;;;;;;;5093190;28;20222;-81
2021/01/27 08:18:27;;;;;;;27.98;25.88;;;;;;;;;;5093568;28;20193;-81
2021/01/27 08:21:12;;;;;;;28.27;25.98;;;;;;;;;;5095091;28;20187;-81
2021/01/27 08:23:47;;;;;;;26.80;24.92;;;;;;;;;;5093887;28;20203;-80
2021/01/27 08:26:34;;;;;;;26.20;24.20;;;;;;;;;;5096064;28;20216;-81
2021/01/27 08:29:11;;;;;;;27.58;25.50;;;;;;;;;;5097119;28;20284;-79
2021/01/27 08:31:38;;;;;;;27.63;25.55;;;;;;;;;;5096201;28;20198;-82
2021/01/27 08:34:05;;;;;;;26.58;24.65;;;;;;;;;;5095134;28;20191;-80
2021/01/27 08:36:51;;;;;;;29.00;26.65;;;;;;;;;;5098707;28;20230;-82
2021/01/27 08:39:25;;;;;;;32.45;30.02;;;;;;;;;;5097775;28;20199;-81
2021/01/27 08:41:54;;;;;;;34.15;31.67;;;;;;;;;;5098050;28;20256;-81
2021/01/27 08:44:27;;;;;;;32.22;30.08;;;;;;;;;;5097300;28;20187;-83
2021/01/27 08:46:56;;;;;;;30.23;28.13;;;;;;;;;;5096583;28;20261;-81
2021/01/27 08:49:55;;;;;;;29.23;27.27;;;;;;;;;;5096575;28;20369;-81
2021/01/27 08:52:36;;;;;;;34.13;31.00;;;;;;;;;;5034754;28;20221;-84
2021/01/27 08:55:31;;;;;;;60.28;53.85;;;;;;;;;;5034260;28;20217;-85
2021/01/27 08:58:16;;;;;;;40.22;36.72;;;;;;;;;;5036598;28;20698;-77
2021/01/27 09:00:44;;;;;;;30.50;28.15;;;;;;;;;;5034661;28;20193;-78
2021/01/27 09:03:31;;;;;;;31.38;28.70;;;;;;;;;;5034762;28;20247;-83
2021/01/27 09:06:00;;;;;;;33.50;30.70;;;;;;;;;;5035013;28;20683;-81
2021/01/27 09:08:31;;;;;;;30.65;28.45;;;;;;;;;;5032181;28;20723;-80
2021/01/27 09:11:00;;;;;;;27.60;25.70;;;;;;;;;;5034008;28;20205;-80
2021/01/27 09:13:34;;;;;;;33.63;30.92;;;;;;;;;;5034353;28;20202;-83
2021/01/27 09:16:03;;;;;;;34.15;31.85;;;;;;;;;;5034305;28;20709;-83
2021/01/27 09:18:30;;;;;;;27.25;25.13;;;;;;;;;;5034411;28;20627;-80
2021/01/27 09:21:03;;;;;;;28.92;26.83;;;;;;;;;;5033862;28;20201;-80
2021/01/27 09:23:30;;;;;;;28.30;26.40;;;;;;;;;;5071598;28;20204;-79
2021/01/27 09:26:00;;;;;;;34.95;32.17;;;;;;;;;;5095872;28;20204;-79
2021/01/27 09:28:28;;;;;;;38.78;35.35;;;;;;;;;;5095966;28;20187;-79
2021/01/27 09:30:55;;;;;;;31.70;29.20;;;;;;;;;;5095652;28;20195;-79
2021/01/27 09:33:30;;;;;;;32.22;29.45;;;;;;;;;;5095735;28;20522;-79
2021/01/27 09:36:06;;;;;;;34.85;32.15;;;;;;;;;;5095100;28;20233;-78
2021/01/27 09:38:33;;;;;;;30.70;27.88;;;;;;;;;;5095490;28;20194;-78
2021/01/27 09:41:02;;;;;;;29.33;27.13;;;;;;;;;;5095414;28;20632;-79
2021/01/27 09:43:33;;;;;;;27.85;25.70;;;;;;;;;;5095697;28;20679;-79
2021/01/27 09:46:16;;;;;;;28.70;26.60;;;;;;;;;;5094733;28;20561;-79
2021/01/27 09:48:43;;;;;;;28.30;26.20;;;;;;;;;;5095836;28;20194;-78
2021/01/27 09:51:13;;;;;;;28.80;26.55;;;;;;;;;;5095738;28;20202;-78
2021/01/27 09:53:40;;;;;;;27.95;26.05;;;;;;;;;;5096923;28;20188;-83
2021/01/27 09:56:10;;;;;;;29.15;26.85;;;;;;;;;;5099933;28;20619;-81
2021/01/27 09:58:40;;;;;;;29.50;27.05;;;;;;;;;;5097659;28;20274;-82
2021/01/27 10:01:08;;;;;;;36.13;33.00;;;;;;;;;;5096117;28;20185;-81
2021/01/27 10:03:36;;;;;;;149.00;103.88;;;;;;;;;;5095635;28;20187;-81
2021/01/27 10:06:03;;;;;;;48.55;44.05;;;;;;;;;;5095332;28;20188;-81
2021/01/27 10:08:34;;;;;;;48.90;44.20;;;;;;;;;;5094455;28;20230;-82
2021/01/27 10:11:03;;;;;;;42.80;38.95;;;;;;;;;;5095090;28;20706;-81
2021/01/27 10:13:32;;;;;;;50.97;46.00;;;;;;;;;;5098926;28;20191;-82
2021/01/27 10:16:06;;;;;;;36.13;33.13;;;;;;;;;;5094903;28;20211;-82
2021/01/27 10:18:33;;;;;;;30.75;28.75;;;;;;;;;;5097472;28;20187;-82
2021/01/27 10:21:04;;;;;;;31.63;29.33;;;;;;;;;;5095235;28;20200;-82
2021/01/27 10:23:36;;;;;;;33.05;30.67;;;;;;;;;;5094671;28;20205;-82
2021/01/27 10:26:22;;;;;;;33.40;30.70;;;;;;;;;;5093405;28;20236;-82
2021/01/27 10:29:15;;;;;;;31.20;29.10;;;;;;;;;;5098382;28;20192;-81
2021/01/27 10:31:45;;;;;;;30.52;28.30;;;;;;;;;;5096912;28;20184;-82
2021/01/27 10:34:33;;;;;;;32.13;29.73;;;;;;;;;;5108851;28;20266;-82
2021/01/27 10:37:02;;;;;;;31.15;28.80;;;;;;;;;;5103297;28;20278;-83
2021/01/27 10:39:31;;;;;;;30.02;28.02;;;;;;;;;;5103352;28;20640;-82
2021/01/27 10:42:17;;;;;;;31.45;28.85;;;;;;;;;;5103746;28;20191;-82
2021/01/27 10:44:44;;;;;;;50.55;45.67;;;;;;;;;;5095212;28;20256;-81
2021/01/27 10:47:20;;;;;;;38.67;35.47;;;;;;;;;;5099919;28;20560;-81
2021/01/27 10:49:48;;;;;;;32.38;29.98;;;;;;;;;;5098268;28;20655;-82
2021/01/27 10:52:19;;;;;;;28.90;26.95;;;;;;;;;;5099152;28;20195;-81
2021/01/27 10:54:53;;;;;;;32.92;30.63;;;;;;;;;;5098230;28;20227;-83
2021/01/27 10:57:20;;;;;;;38.47;35.00;;;;;;;;;;5095682;28;20254;-83
2021/01/27 10:59:47;;;;;;;29.38;27.10;;;;;;;;;;5095142;28;20195;-81
2021/01/27 11:02:14;;;;;;;32.50;30.20;;;;;;;;;;5097624;28;20194;-81
2021/01/27 11:04:41;;;;;;;39.55;36.35;;;;;;;;;;5097053;28;20194;-82
2021/01/27 11:07:09;;;;;;;37.45;34.70;;;;;;;;;;5098651;28;20227;-82
2021/01/27 11:09:37;;;;;;;37.15;34.25;;;;;;;;;;5097690;28;20206;-79
2021/01/27 11:12:05;;;;;;;40.30;37.05;;;;;;;;;;5098906;28;20544;-78
2021/01/27 11:14:32;;;;;;;33.22;30.92;;;;;;;;;;5105131;28;20171;-80
2021/01/27 11:17:01;;;;;;;35.20;32.53;;;;;;;;;;5101112;28;20588;-79
2021/01/27 11:19:28;;;;;;;53.47;48.42;;;;;;;;;;5099637;28;20220;-79
2021/01/27 11:21:56;;;;;;;31.77;29.48;;;;;;;;;;5100823;28;20255;-81
2021/01/27 11:24:23;;;;;;;29.00;26.90;;;;;;;;;;5096959;28;20195;-80
2021/01/27 11:26:54;;;;;;;31.45;29.20;;;;;;;;;;5096438;28;20208;-81
2021/01/27 11:29:22;;;;;;;29.67;27.55;;;;;;;;;;5103653;28;20190;-83
2021/01/27 11:31:49;;;;;;;28.60;26.70;;;;;;;;;;5101389;28;20636;-80
2021/01/27 11:34:15;;;;;;;26.70;24.85;;;;;;;;;;5102486;28;20227;-79
2021/01/27 11:36:56;;;;;;;26.98;25.17;;;;;;;;;;5097350;28;20187;-80
2021/01/27 11:39:23;;;;;;;26.15;24.55;;;;;;;;;;5099092;28;20199;-80
2021/01/27 11:41:51;;;;;;;26.75;25.05;;;;;;;;;;5100498;28;20633;-79
2021/01/27 11:44:19;;;;;;;26.98;25.25;;;;;;;;;;5096900;28;20198;-80
2021/01/27 11:46:51;;;;;;;25.42;23.83;;;;;;;;;;5096813;28;20246;-80
2021/01/27 11:49:17;;;;;;;28.05;26.02;;;;;;;;;;5098971;28;20194;-79
2021/01/27 11:51:47;;;;;;;26.77;25.13;;;;;;;;;;5100874;28;20183;-80
2021/01/27 11:54:14;;;;;;;25.63;24.00;;;;;;;;;;5100459;28;20191;-79
2021/01/27 11:56:41;;;;;;;24.77;23.27;;;;;;;;;;5100332;28;20585;-80
2021/01/27 11:59:08;;;;;;;26.27;24.67;;;;;;;;;;5100040;28;20238;-80
2021/01/27 12:01:36;;;;;;;23.77;22.48;;;;;;;;;;5102289;28;20538;-80
2021/01/27 12:04:06;;;;;;;24.92;23.50;;;;;;;;;;5103272;28;20203;-79
2021/01/27 12:06:33;;;;;;;24.08;22.50;;;;;;;;;;5100727;28;20626;-80
2021/01/27 12:09:03;;;;;;;25.40;23.90;;;;;;;;;;5097368;28;20227;-80
2021/01/27 12:11:30;;;;;;;24.20;22.85;;;;;;;;;;5102580;28;20183;-80
2021/01/27 12:13:56;;;;;;;26.35;24.75;;;;;;;;;;5101460;28;20190;-79
2021/01/27 12:16:23;;;;;;;26.60;24.75;;;;;;;;;;5099847;28;20234;-80
2021/01/27 12:18:50;;;;;;;25.30;23.65;;;;;;;;;;5100599;28;20191;-80
2021/01/27 12:21:18;;;;;;;25.23;23.50;;;;;;;;;;5103936;28;20196;-79
2021/01/27 12:23:45;;;;;;;25.33;23.92;;;;;;;;;;5086549;28;20207;-79
2021/01/27 12:26:12;;;;;;;27.38;25.58;;;;;;;;;;5103407;28;20181;-79
2021/01/27 12:28:39;;;;;;;27.58;25.98;;;;;;;;;;5102358;28;20215;-79
2021/01/27 12:31:06;;;;;;;25.85;24.35;;;;;;;;;;5103218;28;20188;-78
2021/01/27 12:33:33;;;;;;;26.60;24.80;;;;;;;;;;5108475;28;20568;-79
2021/01/27 12:36:00;;;;;;;26.65;24.65;;;;;;;;;;5100294;28;20699;-79
2021/01/27 12:38:27;;;;;;;26.30;24.80;;;;;;;;;;5099780;28;20195;-79
2021/01/27 12:40:55;;;;;;;25.92;24.40;;;;;;;;;;5101722;28;20217;-78
2021/01/27 12:43:22;;;;;;;26.10;24.45;;;;;;;;;;5098764;28;20297;-79
2021/01/27 12:45:49;;;;;;;26.33;24.73;;;;;;;;;;5096809;28;20188;-79
2021/01/27 12:48:16;;;;;;;27.33;25.52;;;;;;;;;;5097789;28;20536;-79
2021/01/27 12:50:43;;;;;;;26.00;24.40;;;;;;;;;;5096544;28;20547;-81
2021/01/27 12:53:10;;;;;;;25.10;23.50;;;;;;;;;;5096362;28;20187;-81
2021/01/27 12:55:37;;;;;;;25.80;24.30;;;;;;;;;;5096118;28;20212;-81
2021/01/27 12:58:04;;;;;;;25.67;24.20;;;;;;;;;;5096808;28;20190;-85
2021/01/27 13:00:32;;;;;;;25.52;23.90;;;;;;;;;;5096220;28;20195;-80
2021/01/27 13:02:59;;;;;;;25.60;23.80;;;;;;;;;;5097124;28;20241;-78
2021/01/27 13:05:26;;;;;;;25.15;23.50;;;;;;;;;;5095719;28;20206;-79
2021/01/27 13:07:53;;;;;;;24.77;23.30;;;;;;;;;;5096070;28;20238;-80
2021/01/27 13:10:20;;;;;;;25.67;23.98;;;;;;;;;;5097394;28;20306;-81
2021/01/27 13:12:50;;;;;;;25.30;23.77;;;;;;;;;;5096554;28;20592;-79
2021/01/27 13:15:19;;;;;;;25.30;23.70;;;;;;;;;;5092809;28;20693;-84
2021/01/27 13:17:46;;;;;;;26.10;24.40;;;;;;;;;;5086407;28;20187;-84
2021/01/27 13:20:14;;;;;;;25.00;23.13;;;;;;;;;;5065859;28;20673;-84
2021/01/27 13:22:41;;;;;;;25.27;23.58;;;;;;;;;;5075161;28;20215;-86
2021/01/27 13:25:09;;;;;;;26.65;24.75;;;;;;;;;;5076561;28;20188;-86
2021/01/27 13:27:36;;;;;;;25.92;24.25;;;;;;;;;;5058357;28;20228;-84
2021/01/27 13:30:04;;;;;;;25.90;24.20;;;;;;;;;;5076280;28;20185;-87
2021/01/27 13:32:31;;;;;;;25.88;24.35;;;;;;;;;;5076539;28;20192;-85
2021/01/27 13:34:58;;;;;;;26.00;24.13;;;;;;;;;;5076059;28;20232;-85
2021/01/27 13:37:25;;;;;;;26.23;24.42;;;;;;;;;;5076195;28;20234;-84
2021/01/27 13:39:52;;;;;;;27.80;25.63;;;;;;;;;;5075618;28;20199;-85
2021/01/27 13:42:18;;;;;;;26.48;24.77;;;;;;;;;;5075860;28;20199;-84
2021/01/27 13:44:45;;;;;;;26.75;24.85;;;;;;;;;;5076115;28;20192;-82
2021/01/27 13:47:13;;;;;;;25.92;24.27;;;;;;;;;;5075830;28;20199;-83
2021/01/27 13:49:40;;;;;;;25.73;24.08;;;;;;;;;;5076506;28;20587;-83
2021/01/27 13:52:07;;;;;;;26.40;24.60;;;;;;;;;;5075649;28;20581;-83
2021/01/27 13:54:34;;;;;;;27.52;25.77;;;;;;;;;;5075243;28;20650;-82
2021/01/27 13:57:01;;;;;;;27.13;25.15;;;;;;;;;;5075264;28;20207;-82
2021/01/27 13:59:27;;;;;;;27.38;25.58;;;;;;;;;;5075748;28;20198;-86
2021/01/27 14:01:54;;;;;;;26.83;25.13;;;;;;;;;;5075625;28;20211;-86
2021/01/27 14:04:22;;;;;;;27.83;25.83;;;;;;;;;;5076198;28;20537;-86
2021/01/27 14:06:49;;;;;;;27.88;26.08;;;;;;;;;;5075891;28;20198;-86
2021/01/27 14:09:16;;;;;;;27.80;26.00;;;;;;;;;;5077094;28;20195;-86
2021/01/27 14:11:43;;;;;;;27.05;25.30;;;;;;;;;;5076608;28;20191;-86
2021/01/27 14:14:10;;;;;;;27.73;25.73;;;;;;;;;;5076659;28;20551;-86
2021/01/27 14:16:37;;;;;;;26.30;24.60;;;;;;;;;;5076334;28;20227;-87
2021/01/27 14:19:04;;;;;;;27.65;25.80;;;;;;;;;;5076664;28;20642;-82
2021/01/27 14:21:32;;;;;;;28.55;26.65;;;;;;;;;;5077065;28;20192;-82
2021/01/27 14:23:59;;;;;;;28.65;26.75;;;;;;;;;;5076135;28;20204;-82
2021/01/27 14:26:26;;;;;;;31.25;29.05;;;;;;;;;;5076665;28;20198;-83
2021/01/27 14:28:53;;;;;;;29.95;28.05;;;;;;;;;;5076788;28;20249;-82
2021/01/27 14:31:20;;;;;;;29.35;27.33;;;;;;;;;;5060720;28;20204;-83
2021/01/27 14:33:47;;;;;;;31.60;29.50;;;;;;;;;;5078300;28;20189;-83
2021/01/27 14:36:14;;;;;;;29.48;27.40;;;;;;;;;;5076469;28;20226;-83
2021/01/27 14:38:42;;;;;;;37.25;34.53;;;;;;;;;;5077561;28;20208;-83
2021/01/27 14:41:10;;;;;;;41.90;38.90;;;;;;;;;;5075860;28;20695;-83
2021/01/27 14:43:37;;;;;;;31.90;29.50;;;;;;;;;;5075682;28;20631;-83
2021/01/27 14:46:04;;;;;;;31.35;28.85;;;;;;;;;;5058465;28;20286;-83
2021/01/27 14:48:31;;;;;;;35.78;33.08;;;;;;;;;;5074620;28;20192;-83